sensor_id;sensor_type;location;lat;lon;timestamp;pressure;altitude;pressure_sealevel;temperature;humidity
45275;BME280;31019;43.780;25.948;2022-12-10T00:01:47;100412.25;;;3.87;100.00
45275;BME280;31019;43.780;25.948;2022-12-10T00:04:14;100408.09;;;3.93;100.00
45275;BME280;31019;43.780;25.948;2022-12-10T00:06:41;100417.00;;;3.84;100.00
45275;BME280;31019;43.780;25.948;2022-12-10T00:09:12;100406.34;;;3.85;100.00
45275;BME280;31019;43.780;25.948;2022-12-10T00:11:40;100400.47;;;3.75;100.00
45275;BME280;31019;43.780;25.948;2022-12-10T00:14:11;100420.34;;;3.70;100.00
45275;BME280;31019;43.780;25.948;2022-12-10T00:16:38;100416.25;;;3.67;100.00
45275;BME280;31019;43.780;25.948;2022-12-10T00:19:06;100421.16;;;3.70;100.00
45275;BME280;31019;43.780;25.948;2022-12-10T00:21:34;100419.16;;;3.80;100.00
45275;BME280;31019;43.780;25.948;2022-12-10T00:24:02;100419.69;;;3.67;100.00
45275;BME280;31019;43.780;25.948;2022-12-10T00:26:31;100421.34;;;3.60;100.00
45275;BME280;31019;43.780;25.948;2022-12-10T00:28:59;100418.53;;;3.62;100.00
45275;BME280;31019;43.780;25.948;2022-12-10T00:31:30;100424.31;;;3.57;100.00
45275;BME280;31019;43.780;25.948;2022-12-10T00:34:06;100424.00;;;3.52;100.00
45275;BME280;31019;43.780;25.948;2022-12-10T00:36:35;100419.91;;;3.25;100.00
45275;BME280;31019;43.780;25.948;2022-12-10T00:39:04;100418.28;;;3.24;100.00
45275;BME280;31019;43.780;25.948;2022-12-10T00:41:31;100408.75;;;3.31;100.00
45275;BME280;31019;43.780;25.948;2022-12-10T00:43:59;100407.09;;;3.38;100.00
45275;BME280;31019;43.780;25.948;2022-12-10T00:46:25;100406.94;;;3.32;100.00
45275;BME280;31019;43.780;25.948;2022-12-10T00:48:55;100400.38;;;3.36;100.00
45275;BME280;31019;43.780;25.948;2022-12-10T00:51:25;100398.91;;;3.33;100.00
45275;BME280;31019;43.780;25.948;2022-12-10T00:53:53;100401.06;;;3.13;100.00
45275;BME280;31019;43.780;25.948;2022-12-10T00:56:32;100396.97;;;3.19;100.00
45275;BME280;31019;43.780;25.948;2022-12-10T00:59:00;100388.91;;;3.29;100.00
45275;BME280;31019;43.780;25.948;2022-12-10T01:01:28;100394.69;;;3.00;100.00
45275;BME280;31019;43.780;25.948;2022-12-10T01:03:58;100402.03;;;2.96;100.00
45275;BME280;31019;43.780;25.948;2022-12-10T01:06:45;100402.53;;;3.16;100.00
45275;BME280;31019;43.780;25.948;2022-12-10T01:09:16;100386.78;;;3.16;100.00
45275;BME280;31019;43.780;25.948;2022-12-10T01:11:45;100396.00;;;3.12;100.00
45275;BME280;31019;43.780;25.948;2022-12-10T01:14:14;100393.50;;;3.35;100.00
45275;BME280;31019;43.780;25.948;2022-12-10T01:16:54;100392.38;;;3.21;100.00
45275;BME280;31019;43.780;25.948;2022-12-10T01:19:23;100401.50;;;3.41;100.00
45275;BME280;31019;43.780;25.948;2022-12-10T01:21:52;100403.81;;;3.44;100.00
45275;BME280;31019;43.780;25.948;2022-12-10T01:24:27;100391.19;;;3.48;100.00
45275;BME280;31019;43.780;25.948;2022-12-10T01:26:54;100390.19;;;3.57;100.00
45275;BME280;31019;43.780;25.948;2022-12-10T01:29:22;100390.19;;;3.49;100.00
45275;BME280;31019;43.780;25.948;2022-12-10T01:31:50;100388.53;;;3.56;100.00
45275;BME280;31019;43.780;25.948;2022-12-10T01:34:17;100376.19;;;3.57;100.00
45275;BME280;31019;43.780;25.948;2022-12-10T01:36:50;100373.25;;;3.60;100.00
45275;BME280;31019;43.780;25.948;2022-12-10T01:39:20;100376.38;;;3.63;100.00
45275;BME280;31019;43.780;25.948;2022-12-10T01:41:49;100375.91;;;3.43;100.00
45275;BME280;31019;43.780;25.948;2022-12-10T01:44:56;100378.06;;;3.40;100.00
45275;BME280;31019;43.780;25.948;2022-12-10T01:47:30;100361.97;;;3.43;100.00
45275;BME280;31019;43.780;25.948;2022-12-10T01:50:08;100345.22;;;3.44;100.00
45275;BME280;31019;43.780;25.948;2022-12-10T01:52:35;100344.56;;;3.50;100.00
45275;BME280;31019;43.780;25.948;2022-12-10T01:55:42;100339.34;;;3.42;100.00
45275;BME280;31019;43.780;25.948;2022-12-10T01:58:09;100346.41;;;3.33;100.00
45275;BME280;31019;43.780;25.948;2022-12-10T02:00:40;100354.09;;;3.35;100.00
45275;BME280;31019;43.780;25.948;2022-12-10T02:03:20;100356.25;;;3.31;100.00
45275;BME280;31019;43.780;25.948;2022-12-10T02:05:58;100344.41;;;3.35;100.00
45275;BME280;31019;43.780;25.948;2022-12-10T02:08:32;100345.56;;;3.33;100.00
45275;BME280;31019;43.780;25.948;2022-12-10T02:11:07;100352.50;;;3.26;100.00
45275;BME280;31019;43.780;25.948;2022-12-10T02:13:56;100363.16;;;3.24;100.00
45275;BME280;31019;43.780;25.948;2022-12-10T02:16:30;100360.53;;;3.16;100.00
45275;BME280;31019;43.780;25.948;2022-12-10T02:19:03;100384.84;;;3.10;100.00
45275;BME280;31019;43.780;25.948;2022-12-10T02:21:38;100381.03;;;3.37;100.00
45275;BME280;31019;43.780;25.948;2022-12-10T02:24:11;100371.97;;;3.48;100.00
45275;BME280;31019;43.780;25.948;2022-12-10T02:26:45;100369.31;;;3.56;100.00
45275;BME280;31019;43.780;25.948;2022-12-10T02:29:24;100379.50;;;3.59;100.00
45275;BME280;31019;43.780;25.948;2022-12-10T02:31:57;100368.97;;;3.59;100.00
45275;BME280;31019;43.780;25.948;2022-12-10T02:34:29;100378.06;;;3.48;100.00
45275;BME280;31019;43.780;25.948;2022-12-10T02:36:58;100380.81;;;3.55;100.00
45275;BME280;31019;43.780;25.948;2022-12-10T02:39:30;100392.47;;;3.52;100.00
45275;BME280;31019;43.780;25.948;2022-12-10T02:42:08;100401.31;;;3.67;100.00
45275;BME280;31019;43.780;25.948;2022-12-10T02:44:40;100397.69;;;3.68;100.00
45275;BME280;31019;43.780;25.948;2022-12-10T02:47:08;100399.69;;;3.58;100.00
45275;BME280;31019;43.780;25.948;2022-12-10T02:49:36;100393.75;;;3.64;100.00
45275;BME280;31019;43.780;25.948;2022-12-10T02:52:07;100402.78;;;3.62;100.00
45275;BME280;31019;43.780;25.948;2022-12-10T02:54:38;100398.16;;;3.72;100.00
45275;BME280;31019;43.780;25.948;2022-12-10T02:57:15;100391.75;;;3.75;100.00
45275;BME280;31019;43.780;25.948;2022-12-10T02:59:55;100390.72;;;3.92;100.00
45275;BME280;31019;43.780;25.948;2022-12-10T03:02:31;100401.41;;;3.90;100.00
45275;BME280;31019;43.780;25.948;2022-12-10T03:05:03;100402.84;;;3.93;100.00
45275;BME280;31019;43.780;25.948;2022-12-10T03:07:34;100401.97;;;4.09;100.00
45275;BME280;31019;43.780;25.948;2022-12-10T03:10:11;100407.38;;;4.16;100.00
45275;BME280;31019;43.780;25.948;2022-12-10T03:12:44;100397.66;;;4.16;100.00
45275;BME280;31019;43.780;25.948;2022-12-10T03:15:18;100392.28;;;4.09;100.00
45275;BME280;31019;43.780;25.948;2022-12-10T03:17:46;100395.03;;;4.16;100.00
45275;BME280;31019;43.780;25.948;2022-12-10T03:20:15;100389.13;;;4.14;100.00
45275;BME280;31019;43.780;25.948;2022-12-10T03:22:44;100396.31;;;4.20;100.00
45275;BME280;31019;43.780;25.948;2022-12-10T03:25:15;100385.06;;;4.11;100.00
45275;BME280;31019;43.780;25.948;2022-12-10T03:27:45;100378.69;;;4.29;100.00
45275;BME280;31019;43.780;25.948;2022-12-10T03:30:15;100374.59;;;4.26;100.00
45275;BME280;31019;43.780;25.948;2022-12-10T03:32:44;100365.03;;;4.33;100.00
45275;BME280;31019;43.780;25.948;2022-12-10T03:35:12;100359.84;;;4.25;100.00
45275;BME280;31019;43.780;25.948;2022-12-10T03:37:39;100363.34;;;4.18;100.00
45275;BME280;31019;43.780;25.948;2022-12-10T03:40:07;100363.28;;;4.26;100.00
45275;BME280;31019;43.780;25.948;2022-12-10T03:42:36;100363.47;;;4.24;100.00
45275;BME280;31019;43.780;25.948;2022-12-10T03:45:05;100364.16;;;4.18;100.00
45275;BME280;31019;43.780;25.948;2022-12-10T03:47:40;100363.81;;;4.21;100.00
45275;BME280;31019;43.780;25.948;2022-12-10T03:50:19;100358.78;;;4.11;100.00
45275;BME280;31019;43.780;25.948;2022-12-10T03:52:52;100357.38;;;4.24;100.00
45275;BME280;31019;43.780;25.948;2022-12-10T03:55:19;100348.84;;;4.22;100.00
45275;BME280;31019;43.780;25.948;2022-12-10T03:57:47;100357.19;;;4.25;100.00
45275;BME280;31019;43.780;25.948;2022-12-10T04:00:15;100355.72;;;4.23;100.00
45275;BME280;31019;43.780;25.948;2022-12-10T04:02:45;100360.38;;;4.21;100.00
45275;BME280;31019;43.780;25.948;2022-12-10T04:05:12;100357.78;;;4.12;100.00
45275;BME280;31019;43.780;25.948;2022-12-10T04:07:40;100360.38;;;4.21;100.00
45275;BME280;31019;43.780;25.948;2022-12-10T04:10:08;100366.31;;;4.15;100.00
45275;BME280;31019;43.780;25.948;2022-12-10T04:12:44;100363.34;;;4.18;100.00
45275;BME280;31019;43.780;25.948;2022-12-10T04:15:37;100365.63;;;4.21;100.00
45275;BME280;31019;43.780;25.948;2022-12-10T04:18:24;100355.25;;;4.19;100.00
45275;BME280;31019;43.780;25.948;2022-12-10T04:20:56;100349.88;;;4.12;100.00
45275;BME280;31019;43.780;25.948;2022-12-10T04:23:43;100355.84;;;4.06;100.00
45275;BME280;31019;43.780;25.948;2022-12-10T04:26:47;100342.84;;;4.05;100.00
45275;BME280;31019;43.780;25.948;2022-12-10T04:29:21;100333.66;;;4.09;100.00
45275;BME280;31019;43.780;25.948;2022-12-10T04:31:48;100331.22;;;3.99;100.00
45275;BME280;31019;43.780;25.948;2022-12-10T04:34:15;100336.81;;;3.96;100.00
45275;BME280;31019;43.780;25.948;2022-12-10T04:36:44;100349.66;;;3.91;100.00
45275;BME280;31019;43.780;25.948;2022-12-10T04:39:15;100342.91;;;3.97;100.00
45275;BME280;31019;43.780;25.948;2022-12-10T04:41:44;100356.56;;;3.92;100.00
45275;BME280;31019;43.780;25.948;2022-12-10T04:44:11;100338.75;;;4.02;100.00
45275;BME280;31019;43.780;25.948;2022-12-10T04:46:38;100350.16;;;3.86;100.00
45275;BME280;31019;43.780;25.948;2022-12-10T04:49:05;100350.13;;;3.95;100.00
45275;BME280;31019;43.780;25.948;2022-12-10T04:51:32;100353.91;;;3.92;100.00
45275;BME280;31019;43.780;25.948;2022-12-10T04:53:59;100355.47;;;3.78;100.00
45275;BME280;31019;43.780;25.948;2022-12-10T04:56:27;100351.47;;;3.90;100.00
45275;BME280;31019;43.780;25.948;2022-12-10T04:58:55;100335.91;;;3.81;100.00
45275;BME280;31019;43.780;25.948;2022-12-10T05:01:22;100337.25;;;3.77;100.00
45275;BME280;31019;43.780;25.948;2022-12-10T05:03:50;100344.47;;;3.75;100.00
45275;BME280;31019;43.780;25.948;2022-12-10T05:06:18;100333.28;;;3.81;100.00
45275;BME280;31019;43.780;25.948;2022-12-10T05:08:46;100336.09;;;3.79;100.00
45275;BME280;31019;43.780;25.948;2022-12-10T05:11:16;100334.94;;;3.74;100.00
45275;BME280;31019;43.780;25.948;2022-12-10T05:13:45;100335.44;;;3.77;100.00
45275;BME280;31019;43.780;25.948;2022-12-10T05:16:14;100330.97;;;3.78;100.00
45275;BME280;31019;43.780;25.948;2022-12-10T05:18:42;100334.59;;;3.85;100.00
45275;BME280;31019;43.780;25.948;2022-12-10T05:21:11;100337.22;;;3.85;100.00
45275;BME280;31019;43.780;25.948;2022-12-10T05:23:40;100344.13;;;3.78;100.00
45275;BME280;31019;43.780;25.948;2022-12-10T05:26:08;100343.66;;;3.74;100.00
45275;BME280;31019;43.780;25.948;2022-12-10T05:28:37;100340.69;;;3.77;100.00
45275;BME280;31019;43.780;25.948;2022-12-10T05:31:11;100345.94;;;3.77;100.00
45275;BME280;31019;43.780;25.948;2022-12-10T05:33:39;100355.25;;;3.88;100.00
45275;BME280;31019;43.780;25.948;2022-12-10T05:36:17;100351.13;;;3.94;100.00
45275;BME280;31019;43.780;25.948;2022-12-10T05:38:44;100354.94;;;3.83;100.00
45275;BME280;31019;43.780;25.948;2022-12-10T05:41:13;100348.06;;;3.82;100.00
45275;BME280;31019;43.780;25.948;2022-12-10T05:43:48;100354.03;;;3.67;100.00
45275;BME280;31019;43.780;25.948;2022-12-10T05:46:30;100355.19;;;3.65;100.00
45275;BME280;31019;43.780;25.948;2022-12-10T05:48:59;100360.41;;;3.73;100.00
45275;BME280;31019;43.780;25.948;2022-12-10T05:51:28;100365.78;;;3.80;100.00
45275;BME280;31019;43.780;25.948;2022-12-10T05:53:56;100366.28;;;3.83;100.00
45275;BME280;31019;43.780;25.948;2022-12-10T05:56:25;100352.66;;;3.80;100.00
45275;BME280;31019;43.780;25.948;2022-12-10T05:58:54;100356.75;;;3.82;100.00
45275;BME280;31019;43.780;25.948;2022-12-10T06:01:22;100345.38;;;3.90;100.00
45275;BME280;31019;43.780;25.948;2022-12-10T06:03:52;100353.59;;;3.87;100.00
45275;BME280;31019;43.780;25.948;2022-12-10T06:06:20;100352.09;;;3.93;100.00
45275;BME280;31019;43.780;25.948;2022-12-10T06:08:47;100347.31;;;3.96;100.00
45275;BME280;31019;43.780;25.948;2022-12-10T06:11:14;100340.69;;;4.08;100.00
45275;BME280;31019;43.780;25.948;2022-12-10T06:13:41;100351.19;;;4.08;100.00
45275;BME280;31019;43.780;25.948;2022-12-10T06:16:10;100350.34;;;4.16;100.00
45275;BME280;31019;43.780;25.948;2022-12-10T06:18:37;100338.13;;;4.23;100.00
45275;BME280;31019;43.780;25.948;2022-12-10T06:21:09;100341.38;;;4.33;100.00
45275;BME280;31019;43.780;25.948;2022-12-10T06:23:46;100352.84;;;4.41;100.00
45275;BME280;31019;43.780;25.948;2022-12-10T06:26:15;100350.78;;;4.28;100.00
45275;BME280;31019;43.780;25.948;2022-12-10T06:28:44;100349.19;;;4.42;100.00
45275;BME280;31019;43.780;25.948;2022-12-10T06:31:11;100351.94;;;4.25;100.00
45275;BME280;31019;43.780;25.948;2022-12-10T06:33:38;100357.44;;;4.39;100.00
45275;BME280;31019;43.780;25.948;2022-12-10T06:36:08;100352.25;;;4.53;100.00
45275;BME280;31019;43.780;25.948;2022-12-10T06:38:36;100344.00;;;4.33;100.00
45275;BME280;31019;43.780;25.948;2022-12-10T06:41:05;100345.81;;;4.33;100.00
45275;BME280;31019;43.780;25.948;2022-12-10T06:43:32;100333.56;;;4.48;100.00
45275;BME280;31019;43.780;25.948;2022-12-10T06:46:04;100328.06;;;4.58;100.00
45275;BME280;31019;43.780;25.948;2022-12-10T06:48:34;100316.38;;;4.61;100.00
45275;BME280;31019;43.780;25.948;2022-12-10T06:51:02;100317.88;;;4.55;100.00
45275;BME280;31019;43.780;25.948;2022-12-10T06:53:31;100320.28;;;4.65;100.00
45275;BME280;31019;43.780;25.948;2022-12-10T06:55:58;100309.34;;;4.76;100.00
45275;BME280;31019;43.780;25.948;2022-12-10T06:58:27;100309.53;;;4.89;100.00
45275;BME280;31019;43.780;25.948;2022-12-10T07:01:03;100313.69;;;4.83;100.00
45275;BME280;31019;43.780;25.948;2022-12-10T07:03:30;100315.81;;;4.88;100.00
45275;BME280;31019;43.780;25.948;2022-12-10T07:06:02;100320.47;;;5.01;100.00
45275;BME280;31019;43.780;25.948;2022-12-10T07:08:43;100327.28;;;5.10;100.00
45275;BME280;31019;43.780;25.948;2022-12-10T07:11:12;100329.28;;;5.23;100.00
45275;BME280;31019;43.780;25.948;2022-12-10T07:13:40;100326.66;;;5.23;100.00
45275;BME280;31019;43.780;25.948;2022-12-10T07:16:12;100317.22;;;5.43;100.00
45275;BME280;31019;43.780;25.948;2022-12-10T07:18:39;100315.31;;;5.52;100.00
45275;BME280;31019;43.780;25.948;2022-12-10T07:21:13;100308.84;;;5.69;100.00
45275;BME280;31019;43.780;25.948;2022-12-10T07:23:41;100298.84;;;5.94;100.00
45275;BME280;31019;43.780;25.948;2022-12-10T07:26:09;100296.97;;;6.10;100.00
45275;BME280;31019;43.780;25.948;2022-12-10T07:28:37;100304.53;;;6.34;100.00
45275;BME280;31019;43.780;25.948;2022-12-10T07:31:07;100297.72;;;6.68;100.00
45275;BME280;31019;43.780;25.948;2022-12-10T07:33:34;100293.91;;;6.28;100.00
45275;BME280;31019;43.780;25.948;2022-12-10T07:36:11;100295.59;;;6.35;100.00
45275;BME280;31019;43.780;25.948;2022-12-10T07:38:41;100296.91;;;6.68;100.00
45275;BME280;31019;43.780;25.948;2022-12-10T07:41:13;100291.84;;;6.66;100.00
45275;BME280;31019;43.780;25.948;2022-12-10T07:43:44;100277.75;;;6.59;100.00
45275;BME280;31019;43.780;25.948;2022-12-10T07:46:26;100279.03;;;6.63;100.00
45275;BME280;31019;43.780;25.948;2022-12-10T07:48:55;100279.84;;;6.63;100.00
45275;BME280;31019;43.780;25.948;2022-12-10T07:51:22;100274.78;;;6.69;100.00
45275;BME280;31019;43.780;25.948;2022-12-10T07:53:58;100269.44;;;6.62;100.00
45275;BME280;31019;43.780;25.948;2022-12-10T07:56:32;100272.84;;;6.56;100.00
45275;BME280;31019;43.780;25.948;2022-12-10T07:58:59;100261.94;;;6.87;100.00
45275;BME280;31019;43.780;25.948;2022-12-10T08:01:26;100264.72;;;7.14;100.00
45275;BME280;31019;43.780;25.948;2022-12-10T08:03:54;100262.16;;;7.20;100.00
45275;BME280;31019;43.780;25.948;2022-12-10T08:06:23;100269.44;;;7.18;100.00
45275;BME280;31019;43.780;25.948;2022-12-10T08:08:51;100261.34;;;8.49;100.00
45275;BME280;31019;43.780;25.948;2022-12-10T08:11:19;100266.97;;;9.19;100.00
45275;BME280;31019;43.780;25.948;2022-12-10T08:13:47;100255.25;;;9.47;100.00
45275;BME280;31019;43.780;25.948;2022-12-10T08:16:16;100245.97;;;9.76;100.00
45275;BME280;31019;43.780;25.948;2022-12-10T08:18:44;100260.31;;;8.97;100.00
45275;BME280;31019;43.780;25.948;2022-12-10T08:21:20;100257.69;;;9.55;100.00
45275;BME280;31019;43.780;25.948;2022-12-10T08:23:48;100245.53;;;10.49;100.00
45275;BME280;31019;43.780;25.948;2022-12-10T08:26:17;100239.75;;;10.77;100.00
45275;BME280;31019;43.780;25.948;2022-12-10T08:28:44;100231.16;;;10.82;100.00
45275;BME280;31019;43.780;25.948;2022-12-10T08:31:20;100227.97;;;11.65;100.00
45275;BME280;31019;43.780;25.948;2022-12-10T08:33:47;100221.78;;;12.01;100.00
45275;BME280;31019;43.780;25.948;2022-12-10T08:36:16;100217.69;;;12.76;100.00
45275;BME280;31019;43.780;25.948;2022-12-10T08:38:49;100208.25;;;13.20;100.00
45275;BME280;31019;43.780;25.948;2022-12-10T08:41:18;100205.00;;;13.18;100.00
45275;BME280;31019;43.780;25.948;2022-12-10T08:43:46;100196.94;;;13.01;100.00
45275;BME280;31019;43.780;25.948;2022-12-10T08:46:15;100196.56;;;13.10;100.00
45275;BME280;31019;43.780;25.948;2022-12-10T08:48:44;100192.22;;;12.68;100.00
45275;BME280;31019;43.780;25.948;2022-12-10T08:51:15;100193.59;;;12.82;100.00
45275;BME280;31019;43.780;25.948;2022-12-10T08:53:42;100178.31;;;11.29;100.00
45275;BME280;31019;43.780;25.948;2022-12-10T08:56:09;100175.88;;;12.41;100.00
45275;BME280;31019;43.780;25.948;2022-12-10T08:58:36;100175.03;;;12.99;100.00
45275;BME280;31019;43.780;25.948;2022-12-10T09:01:06;100174.56;;;12.91;100.00
45275;BME280;31019;43.780;25.948;2022-12-10T09:03:33;100172.63;;;11.55;100.00
45275;BME280;31019;43.780;25.948;2022-12-10T09:06:04;100179.84;;;12.74;100.00
45275;BME280;31019;43.780;25.948;2022-12-10T09:08:31;100165.47;;;13.15;100.00
45275;BME280;31019;43.780;25.948;2022-12-10T09:10:57;100162.03;;;15.12;100.00
45275;BME280;31019;43.780;25.948;2022-12-10T09:13:24;100161.28;;;14.39;100.00
45275;BME280;31019;43.780;25.948;2022-12-10T09:15:52;100150.28;;;14.02;100.00
45275;BME280;31019;43.780;25.948;2022-12-10T09:18:19;100140.72;;;13.43;100.00
45275;BME280;31019;43.780;25.948;2022-12-10T09:20:46;100141.44;;;14.52;100.00
45275;BME280;31019;43.780;25.948;2022-12-10T09:23:14;100139.31;;;14.71;100.00
45275;BME280;31019;43.780;25.948;2022-12-10T09:25:41;100135.69;;;14.60;100.00
45275;BME280;31019;43.780;25.948;2022-12-10T09:28:07;100135.31;;;14.51;100.00
45275;BME280;31019;43.780;25.948;2022-12-10T09:30:34;100135.97;;;15.02;100.00
45275;BME280;31019;43.780;25.948;2022-12-10T09:33:01;100125.03;;;13.92;100.00
45275;BME280;31019;43.780;25.948;2022-12-10T09:35:28;100131.56;;;14.52;100.00
45275;BME280;31019;43.780;25.948;2022-12-10T09:37:54;100124.53;;;15.83;100.00
45275;BME280;31019;43.780;25.948;2022-12-10T09:40:30;100120.72;;;14.59;100.00
45275;BME280;31019;43.780;25.948;2022-12-10T09:43:03;100120.84;;;14.69;100.00
45275;BME280;31019;43.780;25.948;2022-12-10T09:45:36;100117.81;;;16.60;100.00
45275;BME280;31019;43.780;25.948;2022-12-10T09:48:15;100118.19;;;15.13;100.00
45275;BME280;31019;43.780;25.948;2022-12-10T09:50:50;100120.03;;;13.96;100.00
45275;BME280;31019;43.780;25.948;2022-12-10T09:53:21;100121.06;;;15.61;100.00
45275;BME280;31019;43.780;25.948;2022-12-10T09:55:50;100118.19;;;16.32;100.00
45275;BME280;31019;43.780;25.948;2022-12-10T09:58:19;100113.78;;;17.15;100.00
45275;BME280;31019;43.780;25.948;2022-12-10T10:00:49;100110.28;;;16.57;100.00
45275;BME280;31019;43.780;25.948;2022-12-10T10:03:18;100103.69;;;16.27;100.00
45275;BME280;31019;43.780;25.948;2022-12-10T10:05:46;100104.81;;;16.37;100.00
45275;BME280;31019;43.780;25.948;2022-12-10T10:08:22;100107.44;;;15.62;100.00
45275;BME280;31019;43.780;25.948;2022-12-10T10:10:51;100096.63;;;15.25;100.00
45275;BME280;31019;43.780;25.948;2022-12-10T10:13:27;100101.94;;;15.47;100.00
45275;BME280;31019;43.780;25.948;2022-12-10T10:15:55;100095.63;;;14.82;100.00
45275;BME280;31019;43.780;25.948;2022-12-10T10:18:30;100097.25;;;14.27;100.00
45275;BME280;31019;43.780;25.948;2022-12-10T10:20:59;100093.59;;;14.33;100.00
45275;BME280;31019;43.780;25.948;2022-12-10T10:23:26;100079.78;;;13.23;100.00
45275;BME280;31019;43.780;25.948;2022-12-10T10:25:54;100085.91;;;13.36;100.00
45275;BME280;31019;43.780;25.948;2022-12-10T10:28:22;100081.53;;;12.89;100.00
45275;BME280;31019;43.780;25.948;2022-12-10T10:30:50;100085.97;;;14.42;100.00
45275;BME280;31019;43.780;25.948;2022-12-10T10:33:18;100078.06;;;13.46;100.00
45275;BME280;31019;43.780;25.948;2022-12-10T10:35:47;100080.69;;;13.58;100.00
45275;BME280;31019;43.780;25.948;2022-12-10T10:38:18;100070.03;;;12.48;100.00
45275;BME280;31019;43.780;25.948;2022-12-10T10:40:49;100055.25;;;12.17;100.00
45275;BME280;31019;43.780;25.948;2022-12-10T10:43:21;100040.44;;;13.14;100.00
45275;BME280;31019;43.780;25.948;2022-12-10T10:45:51;100041.47;;;13.58;100.00
45275;BME280;31019;43.780;25.948;2022-12-10T10:48:20;100035.28;;;14.25;100.00
45275;BME280;31019;43.780;25.948;2022-12-10T10:50:50;100038.88;;;13.97;100.00
45275;BME280;31019;43.780;25.948;2022-12-10T10:53:29;100046.00;;;12.20;100.00
45275;BME280;31019;43.780;25.948;2022-12-10T10:56:05;100046.72;;;12.55;100.00
45275;BME280;31019;43.780;25.948;2022-12-10T10:58:35;100047.84;;;14.08;100.00
45275;BME280;31019;43.780;25.948;2022-12-10T11:01:04;100037.91;;;12.67;100.00
45275;BME280;31019;43.780;25.948;2022-12-10T11:03:34;100022.72;;;11.91;100.00
45275;BME280;31019;43.780;25.948;2022-12-10T11:06:06;100021.84;;;12.90;100.00
45275;BME280;31019;43.780;25.948;2022-12-10T11:08:37;100033.06;;;13.21;100.00
45275;BME280;31019;43.780;25.948;2022-12-10T11:11:06;100035.00;;;13.88;100.00
45275;BME280;31019;43.780;25.948;2022-12-10T11:13:38;100021.00;;;14.36;100.00
45275;BME280;31019;43.780;25.948;2022-12-10T11:16:12;100023.16;;;14.39;100.00
45275;BME280;31019;43.780;25.948;2022-12-10T11:18:40;100024.09;;;13.89;100.00
45275;BME280;31019;43.780;25.948;2022-12-10T11:21:17;100009.47;;;14.75;100.00
45275;BME280;31019;43.780;25.948;2022-12-10T11:23:48;100002.16;;;17.04;100.00
45275;BME280;31019;43.780;25.948;2022-12-10T11:26:46;99992.91;;;16.07;100.00
45275;BME280;31019;43.780;25.948;2022-12-10T11:29:29;99972.91;;;15.72;100.00
45275;BME280;31019;43.780;25.948;2022-12-10T11:32:10;99968.06;;;16.89;100.00
45275;BME280;31019;43.780;25.948;2022-12-10T11:34:51;99971.88;;;17.34;100.00
45275;BME280;31019;43.780;25.948;2022-12-10T11:37:30;99978.84;;;17.61;100.00
45275;BME280;31019;43.780;25.948;2022-12-10T11:40:06;99989.84;;;17.59;100.00
45275;BME280;31019;43.780;25.948;2022-12-10T11:42:46;99980.75;;;16.31;100.00
45275;BME280;31019;43.780;25.948;2022-12-10T11:45:20;99985.06;;;15.52;100.00
45275;BME280;31019;43.780;25.948;2022-12-10T11:48:07;99983.88;;;16.18;100.00
45275;BME280;31019;43.780;25.948;2022-12-10T11:50:41;99982.16;;;14.73;100.00
45275;BME280;31019;43.780;25.948;2022-12-10T11:53:19;99970.31;;;15.87;100.00
45275;BME280;31019;43.780;25.948;2022-12-10T11:55:58;99965.22;;;18.38;100.00
45275;BME280;31019;43.780;25.948;2022-12-10T11:58:45;99964.84;;;17.95;100.00
45275;BME280;31019;43.780;25.948;2022-12-10T12:01:24;99962.53;;;18.33;100.00
45275;BME280;31019;43.780;25.948;2022-12-10T12:07:22;99963.19;;;17.99;100.00
45275;BME280;31019;43.780;25.948;2022-12-10T12:10:14;99967.81;;;17.83;100.00
45275;BME280;31019;43.780;25.948;2022-12-10T12:12:49;99972.72;;;18.46;100.00
45275;BME280;31019;43.780;25.948;2022-12-10T12:15:20;99974.50;;;17.75;100.00
45275;BME280;31019;43.780;25.948;2022-12-10T12:17:55;99968.06;;;17.92;100.00
45275;BME280;31019;43.780;25.948;2022-12-10T12:20:25;99967.28;;;18.56;100.00
45275;BME280;31019;43.780;25.948;2022-12-10T12:22:56;99967.72;;;19.52;100.00
45275;BME280;31019;43.780;25.948;2022-12-10T12:25:28;99970.59;;;19.27;100.00
45275;BME280;31019;43.780;25.948;2022-12-10T12:28:00;99967.91;;;20.14;100.00
45275;BME280;31019;43.780;25.948;2022-12-10T12:30:32;99952.06;;;20.55;100.00
45275;BME280;31019;43.780;25.948;2022-12-10T12:33:08;99951.06;;;20.03;100.00
45275;BME280;31019;43.780;25.948;2022-12-10T12:35:40;99949.31;;;19.30;100.00
45275;BME280;31019;43.780;25.948;2022-12-10T12:38:21;99957.63;;;17.18;100.00
45275;BME280;31019;43.780;25.948;2022-12-10T12:40:53;99941.16;;;18.02;100.00
45275;BME280;31019;43.780;25.948;2022-12-10T12:43:25;99951.75;;;17.22;100.00
45275;BME280;31019;43.780;25.948;2022-12-10T12:45:55;99953.56;;;16.80;100.00
45275;BME280;31019;43.780;25.948;2022-12-10T12:48:29;99947.81;;;16.41;100.00
45275;BME280;31019;43.780;25.948;2022-12-10T12:51:04;99955.53;;;16.32;100.00
45275;BME280;31019;43.780;25.948;2022-12-10T12:53:33;99944.25;;;13.88;100.00
45275;BME280;31019;43.780;25.948;2022-12-10T12:56:04;99943.00;;;13.40;100.00
45275;BME280;31019;43.780;25.948;2022-12-10T12:58:37;99946.06;;;13.48;100.00
45275;BME280;31019;43.780;25.948;2022-12-10T13:01:16;99930.22;;;12.63;100.00
45275;BME280;31019;43.780;25.948;2022-12-10T13:03:48;99939.56;;;12.36;100.00